sensor_id;sensor_type;location;lat;lon;timestamp;P1;durP1;ratioP1;P2;durP2;ratioP2
47922;SDS011;33688;44.354;9.228;2023-09-19T00:00:23;5.57;;;3.10;;
47922;SDS011;33688;44.354;9.228;2023-09-19T00:02:57;5.32;;;2.00;;
47922;SDS011;33688;44.354;9.228;2023-09-19T00:05:28;6.10;;;2.17;;
47922;SDS011;33688;44.354;9.228;2023-09-19T00:07:55;3.42;;;1.70;;
47922;SDS011;33688;44.354;9.228;2023-09-19T00:10:26;4.20;;;1.90;;
47922;SDS011;33688;44.354;9.228;2023-09-19T00:12:56;3.95;;;2.17;;
47922;SDS011;33688;44.354;9.228;2023-09-19T00:15:27;4.25;;;2.45;;
47922;SDS011;33688;44.354;9.228;2023-09-19T00:17:54;4.13;;;1.80;;
47922;SDS011;33688;44.354;9.228;2023-09-19T00:20:20;4.38;;;2.08;;
47922;SDS011;33688;44.354;9.228;2023-09-19T00:22:48;4.35;;;1.75;;
47922;SDS011;33688;44.354;9.228;2023-09-19T00:25:17;4.70;;;1.67;;
47922;SDS011;33688;44.354;9.228;2023-09-19T00:27:43;4.05;;;1.98;;
47922;SDS011;33688;44.354;9.228;2023-09-19T00:30:11;3.75;;;2.05;;
47922;SDS011;33688;44.354;9.228;2023-09-19T00:32:47;5.68;;;1.90;;
47922;SDS011;33688;44.354;9.228;2023-09-19T00:35:14;5.45;;;2.20;;
47922;SDS011;33688;44.354;9.228;2023-09-19T00:37:44;3.25;;;1.77;;
47922;SDS011;33688;44.354;9.228;2023-09-19T00:40:10;3.80;;;2.03;;
47922;SDS011;33688;44.354;9.228;2023-09-19T00:42:41;4.43;;;2.25;;
47922;SDS011;33688;44.354;9.228;2023-09-19T00:45:07;6.13;;;2.20;;
47922;SDS011;33688;44.354;9.228;2023-09-19T00:47:37;4.55;;;2.50;;
47922;SDS011;33688;44.354;9.228;2023-09-19T00:50:06;5.88;;;2.28;;
47922;SDS011;33688;44.354;9.228;2023-09-19T00:52:36;4.38;;;2.22;;
47922;SDS011;33688;44.354;9.228;2023-09-19T00:55:07;4.75;;;2.67;;
47922;SDS011;33688;44.354;9.228;2023-09-19T00:57:34;7.05;;;2.63;;
47922;SDS011;33688;44.354;9.228;2023-09-19T01:00:04;3.47;;;1.85;;
47922;SDS011;33688;44.354;9.228;2023-09-19T01:02:33;3.30;;;1.77;;
47922;SDS011;33688;44.354;9.228;2023-09-19T01:05:00;6.72;;;2.45;;
47922;SDS011;33688;44.354;9.228;2023-09-19T01:07:26;4.45;;;2.28;;
47922;SDS011;33688;44.354;9.228;2023-09-19T01:09:55;7.28;;;2.38;;
47922;SDS011;33688;44.354;9.228;2023-09-19T01:12:30;5.72;;;2.83;;
47922;SDS011;33688;44.354;9.228;2023-09-19T01:15:08;6.75;;;3.13;;
47922;SDS011;33688;44.354;9.228;2023-09-19T01:32:06;5.32;;;2.10;;
47922;SDS011;33688;44.354;9.228;2023-09-19T01:34:54;5.53;;;2.42;;
47922;SDS011;33688;44.354;9.228;2023-09-19T01:37:24;6.85;;;2.60;;
47922;SDS011;33688;44.354;9.228;2023-09-19T01:40:02;5.13;;;2.33;;
47922;SDS011;33688;44.354;9.228;2023-09-19T01:42:58;5.72;;;2.13;;
47922;SDS011;33688;44.354;9.228;2023-09-19T01:45:44;4.95;;;2.17;;
47922;SDS011;33688;44.354;9.228;2023-09-19T01:48:43;6.63;;;2.45;;
47922;SDS011;33688;44.354;9.228;2023-09-19T01:54:52;4.80;;;2.20;;
47922;SDS011;33688;44.354;9.228;2023-09-19T01:57:26;3.55;;;2.05;;
47922;SDS011;33688;44.354;9.228;2023-09-19T02:00:05;4.40;;;1.80;;
47922;SDS011;33688;44.354;9.228;2023-09-19T02:02:42;4.93;;;2.22;;
47922;SDS011;33688;44.354;9.228;2023-09-19T02:05:12;5.05;;;2.13;;
47922;SDS011;33688;44.354;9.228;2023-09-19T02:07:39;5.13;;;1.98;;
47922;SDS011;33688;44.354;9.228;2023-09-19T02:10:06;5.97;;;2.25;;
47922;SDS011;33688;44.354;9.228;2023-09-19T02:12:32;6.20;;;2.25;;
47922;SDS011;33688;44.354;9.228;2023-09-19T02:15:02;3.67;;;1.50;;
47922;SDS011;33688;44.354;9.228;2023-09-19T02:17:32;5.60;;;2.72;;
47922;SDS011;33688;44.354;9.228;2023-09-19T02:19:58;5.10;;;2.85;;
47922;SDS011;33688;44.354;9.228;2023-09-19T02:22:27;5.35;;;2.33;;
47922;SDS011;33688;44.354;9.228;2023-09-19T02:24:53;3.92;;;1.65;;
47922;SDS011;33688;44.354;9.228;2023-09-19T02:27:19;3.50;;;1.88;;
47922;SDS011;33688;44.354;9.228;2023-09-19T02:29:45;6.18;;;2.42;;
47922;SDS011;33688;44.354;9.228;2023-09-19T02:32:12;6.05;;;2.92;;
47922;SDS011;33688;44.354;9.228;2023-09-19T02:34:38;3.63;;;1.60;;
47922;SDS011;33688;44.354;9.228;2023-09-19T02:37:04;2.72;;;1.77;;
47922;SDS011;33688;44.354;9.228;2023-09-19T02:39:31;4.72;;;2.05;;
47922;SDS011;33688;44.354;9.228;2023-09-19T02:41:57;4.00;;;1.92;;
47922;SDS011;33688;44.354;9.228;2023-09-19T02:44:23;3.88;;;2.80;;
47922;SDS011;33688;44.354;9.228;2023-09-19T02:46:50;4.93;;;2.05;;
47922;SDS011;33688;44.354;9.228;2023-09-19T02:49:16;5.00;;;1.88;;
47922;SDS011;33688;44.354;9.228;2023-09-19T02:51:43;4.60;;;2.00;;
47922;SDS011;33688;44.354;9.228;2023-09-19T02:54:10;3.65;;;1.75;;
47922;SDS011;33688;44.354;9.228;2023-09-19T02:56:37;3.30;;;1.92;;
47922;SDS011;33688;44.354;9.228;2023-09-19T02:59:03;3.33;;;2.10;;
47922;SDS011;33688;44.354;9.228;2023-09-19T03:01:29;3.67;;;1.75;;
47922;SDS011;33688;44.354;9.228;2023-09-19T03:03:55;5.63;;;2.00;;
47922;SDS011;33688;44.354;9.228;2023-09-19T03:06:21;4.25;;;1.77;;
47922;SDS011;33688;44.354;9.228;2023-09-19T03:08:49;3.88;;;2.08;;
47922;SDS011;33688;44.354;9.228;2023-09-19T03:11:19;4.85;;;2.67;;
47922;SDS011;33688;44.354;9.228;2023-09-19T03:13:52;5.30;;;1.77;;
47922;SDS011;33688;44.354;9.228;2023-09-19T03:16:20;4.22;;;1.90;;
47922;SDS011;33688;44.354;9.228;2023-09-19T03:18:53;3.90;;;1.65;;
47922;SDS011;33688;44.354;9.228;2023-09-19T03:21:22;4.43;;;1.92;;
47922;SDS011;33688;44.354;9.228;2023-09-19T03:23:47;5.18;;;2.65;;
47922;SDS011;33688;44.354;9.228;2023-09-19T03:26:14;9.88;;;2.80;;
47922;SDS011;33688;44.354;9.228;2023-09-19T03:28:42;5.25;;;2.03;;
47922;SDS011;33688;44.354;9.228;2023-09-19T03:31:08;8.05;;;2.35;;
47922;SDS011;33688;44.354;9.228;2023-09-19T03:33:35;4.60;;;1.92;;
47922;SDS011;33688;44.354;9.228;2023-09-19T03:36:03;4.63;;;1.98;;
47922;SDS011;33688;44.354;9.228;2023-09-19T03:38:30;3.90;;;2.08;;
47922;SDS011;33688;44.354;9.228;2023-09-19T03:40:58;4.88;;;1.75;;
47922;SDS011;33688;44.354;9.228;2023-09-19T03:43:24;2.47;;;1.60;;
47922;SDS011;33688;44.354;9.228;2023-09-19T03:45:51;4.05;;;1.85;;
47922;SDS011;33688;44.354;9.228;2023-09-19T03:48:19;3.53;;;1.77;;
47922;SDS011;33688;44.354;9.228;2023-09-19T03:50:47;4.60;;;2.05;;
47922;SDS011;33688;44.354;9.228;2023-09-19T03:53:14;4.95;;;1.67;;
47922;SDS011;33688;44.354;9.228;2023-09-19T03:55:40;5.13;;;1.88;;
47922;SDS011;33688;44.354;9.228;2023-09-19T03:58:05;5.85;;;1.95;;
47922;SDS011;33688;44.354;9.228;2023-09-19T04:00:32;5.25;;;2.00;;
47922;SDS011;33688;44.354;9.228;2023-09-19T04:02:59;3.83;;;1.85;;
47922;SDS011;33688;44.354;9.228;2023-09-19T04:05:27;4.13;;;1.75;;
47922;SDS011;33688;44.354;9.228;2023-09-19T04:07:53;3.47;;;1.63;;
47922;SDS011;33688;44.354;9.228;2023-09-19T04:10:19;3.00;;;1.58;;
47922;SDS011;33688;44.354;9.228;2023-09-19T04:12:55;3.22;;;1.80;;
47922;SDS011;33688;44.354;9.228;2023-09-19T04:15:22;2.05;;;1.40;;
47922;SDS011;33688;44.354;9.228;2023-09-19T04:17:50;3.67;;;1.65;;
47922;SDS011;33688;44.354;9.228;2023-09-19T04:20:17;3.92;;;1.83;;
47922;SDS011;33688;44.354;9.228;2023-09-19T04:22:46;3.65;;;1.85;;
47922;SDS011;33688;44.354;9.228;2023-09-19T04:25:12;5.82;;;1.65;;
47922;SDS011;33688;44.354;9.228;2023-09-19T04:27:39;3.60;;;2.03;;
47922;SDS011;33688;44.354;9.228;2023-09-19T04:30:06;3.65;;;1.70;;
47922;SDS011;33688;44.354;9.228;2023-09-19T04:32:35;5.47;;;2.08;;
47922;SDS011;33688;44.354;9.228;2023-09-19T04:35:06;3.00;;;1.88;;
47922;SDS011;33688;44.354;9.228;2023-09-19T04:37:35;5.00;;;2.20;;
47922;SDS011;33688;44.354;9.228;2023-09-19T04:40:08;3.45;;;1.65;;
47922;SDS011;33688;44.354;9.228;2023-09-19T04:42:39;5.60;;;2.17;;
47922;SDS011;33688;44.354;9.228;2023-09-19T04:45:06;6.68;;;2.78;;
47922;SDS011;33688;44.354;9.228;2023-09-19T04:47:34;3.40;;;1.77;;
47922;SDS011;33688;44.354;9.228;2023-09-19T04:50:01;4.03;;;2.20;;
47922;SDS011;33688;44.354;9.228;2023-09-19T04:52:30;3.47;;;1.85;;
47922;SDS011;33688;44.354;9.228;2023-09-19T04:54:56;3.42;;;1.80;;
47922;SDS011;33688;44.354;9.228;2023-09-19T04:57:22;4.78;;;1.70;;
47922;SDS011;33688;44.354;9.228;2023-09-19T04:59:49;8.45;;;2.35;;
47922;SDS011;33688;44.354;9.228;2023-09-19T05:02:15;6.60;;;2.40;;
47922;SDS011;33688;44.354;9.228;2023-09-19T05:04:41;4.07;;;2.00;;
47922;SDS011;33688;44.354;9.228;2023-09-19T05:07:07;6.15;;;2.15;;
47922;SDS011;33688;44.354;9.228;2023-09-19T05:09:32;4.68;;;2.20;;
47922;SDS011;33688;44.354;9.228;2023-09-19T05:12:00;4.25;;;2.00;;
47922;SDS011;33688;44.354;9.228;2023-09-19T05:14:26;6.05;;;2.30;;
47922;SDS011;33688;44.354;9.228;2023-09-19T05:16:51;6.00;;;2.20;;
47922;SDS011;33688;44.354;9.228;2023-09-19T05:19:17;8.50;;;2.63;;
47922;SDS011;33688;44.354;9.228;2023-09-19T05:21:43;4.97;;;2.10;;
47922;SDS011;33688;44.354;9.228;2023-09-19T05:24:08;8.77;;;2.78;;
47922;SDS011;33688;44.354;9.228;2023-09-19T05:26:36;3.25;;;1.70;;
47922;SDS011;33688;44.354;9.228;2023-09-19T05:29:02;5.78;;;2.13;;
47922;SDS011;33688;44.354;9.228;2023-09-19T05:31:28;6.18;;;2.25;;
47922;SDS011;33688;44.354;9.228;2023-09-19T05:33:54;5.05;;;1.98;;
47922;SDS011;33688;44.354;9.228;2023-09-19T05:36:20;4.53;;;2.17;;
47922;SDS011;33688;44.354;9.228;2023-09-19T05:38:46;4.20;;;1.80;;
47922;SDS011;33688;44.354;9.228;2023-09-19T05:41:15;4.47;;;1.95;;
47922;SDS011;33688;44.354;9.228;2023-09-19T05:43:41;4.65;;;2.00;;
47922;SDS011;33688;44.354;9.228;2023-09-19T05:46:07;7.60;;;2.97;;
47922;SDS011;33688;44.354;9.228;2023-09-19T05:48:33;2.65;;;1.40;;
47922;SDS011;33688;44.354;9.228;2023-09-19T05:50:59;3.63;;;1.88;;
47922;SDS011;33688;44.354;9.228;2023-09-19T05:53:26;5.47;;;1.98;;
47922;SDS011;33688;44.354;9.228;2023-09-19T05:55:52;6.95;;;2.65;;
47922;SDS011;33688;44.354;9.228;2023-09-19T05:58:19;7.22;;;2.65;;
47922;SDS011;33688;44.354;9.228;2023-09-19T06:00:45;5.82;;;2.42;;
47922;SDS011;33688;44.354;9.228;2023-09-19T06:03:12;7.47;;;2.90;;
47922;SDS011;33688;44.354;9.228;2023-09-19T06:05:39;3.22;;;2.05;;
47922;SDS011;33688;44.354;9.228;2023-09-19T06:08:08;5.70;;;2.15;;
47922;SDS011;33688;44.354;9.228;2023-09-19T06:10:34;5.70;;;2.25;;
47922;SDS011;33688;44.354;9.228;2023-09-19T06:13:03;4.03;;;2.42;;
47922;SDS011;33688;44.354;9.228;2023-09-19T06:15:30;5.65;;;1.88;;
47922;SDS011;33688;44.354;9.228;2023-09-19T06:17:58;4.28;;;1.80;;
47922;SDS011;33688;44.354;9.228;2023-09-19T06:20:27;5.15;;;2.25;;
47922;SDS011;33688;44.354;9.228;2023-09-19T06:22:53;6.05;;;2.15;;
47922;SDS011;33688;44.354;9.228;2023-09-19T06:25:20;2.97;;;1.73;;
47922;SDS011;33688;44.354;9.228;2023-09-19T06:27:54;4.78;;;2.03;;
47922;SDS011;33688;44.354;9.228;2023-09-19T06:30:22;6.30;;;2.72;;
47922;SDS011;33688;44.354;9.228;2023-09-19T06:32:59;3.95;;;1.80;;
47922;SDS011;33688;44.354;9.228;2023-09-19T06:35:26;3.95;;;2.05;;
47922;SDS011;33688;44.354;9.228;2023-09-19T06:37:54;4.53;;;2.25;;
47922;SDS011;33688;44.354;9.228;2023-09-19T06:40:23;22.75;;;6.45;;
47922;SDS011;33688;44.354;9.228;2023-09-19T06:42:53;26.10;;;7.93;;
47922;SDS011;33688;44.354;9.228;2023-09-19T06:45:20;30.02;;;9.20;;
47922;SDS011;33688;44.354;9.228;2023-09-19T06:47:50;33.67;;;8.13;;
47922;SDS011;33688;44.354;9.228;2023-09-19T06:50:18;36.72;;;10.25;;
47922;SDS011;33688;44.354;9.228;2023-09-19T06:52:51;30.92;;;7.28;;
47922;SDS011;33688;44.354;9.228;2023-09-19T06:55:20;37.25;;;8.90;;
47922;SDS011;33688;44.354;9.228;2023-09-19T06:57:50;45.35;;;9.20;;
47922;SDS011;33688;44.354;9.228;2023-09-19T07:00:17;36.33;;;9.32;;
47922;SDS011;33688;44.354;9.228;2023-09-19T07:02:56;37.47;;;9.10;;
47922;SDS011;33688;44.354;9.228;2023-09-19T07:05:37;32.95;;;9.48;;
47922;SDS011;33688;44.354;9.228;2023-09-19T07:08:07;34.65;;;8.85;;
47922;SDS011;33688;44.354;9.228;2023-09-19T07:10:36;27.10;;;7.90;;
47922;SDS011;33688;44.354;9.228;2023-09-19T07:13:02;28.35;;;7.43;;
47922;SDS011;33688;44.354;9.228;2023-09-19T07:15:34;34.47;;;7.88;;
47922;SDS011;33688;44.354;9.228;2023-09-19T07:18:11;26.13;;;7.10;;
47922;SDS011;33688;44.354;9.228;2023-09-19T07:20:42;31.52;;;9.65;;
47922;SDS011;33688;44.354;9.228;2023-09-19T07:23:15;31.45;;;7.05;;
47922;SDS011;33688;44.354;9.228;2023-09-19T07:25:47;29.42;;;7.13;;
47922;SDS011;33688;44.354;9.228;2023-09-19T07:28:14;30.75;;;8.75;;
47922;SDS011;33688;44.354;9.228;2023-09-19T07:30:40;29.80;;;9.63;;
47922;SDS011;33688;44.354;9.228;2023-09-19T07:33:09;27.55;;;8.05;;
47922;SDS011;33688;44.354;9.228;2023-09-19T07:35:38;27.73;;;7.50;;
47922;SDS011;33688;44.354;9.228;2023-09-19T07:38:07;29.55;;;8.07;;
47922;SDS011;33688;44.354;9.228;2023-09-19T07:40:36;35.13;;;9.35;;
47922;SDS011;33688;44.354;9.228;2023-09-19T07:43:02;32.83;;;8.35;;
47922;SDS011;33688;44.354;9.228;2023-09-19T07:45:32;27.80;;;8.05;;
47922;SDS011;33688;44.354;9.228;2023-09-19T07:47:58;35.85;;;8.52;;
47922;SDS011;33688;44.354;9.228;2023-09-19T07:50:30;25.63;;;7.75;;
47922;SDS011;33688;44.354;9.228;2023-09-19T07:52:59;34.03;;;8.52;;
47922;SDS011;33688;44.354;9.228;2023-09-19T07:55:25;28.05;;;7.75;;
47922;SDS011;33688;44.354;9.228;2023-09-19T07:57:54;34.50;;;8.35;;
47922;SDS011;33688;44.354;9.228;2023-09-19T08:00:20;28.48;;;7.43;;
47922;SDS011;33688;44.354;9.228;2023-09-19T08:02:46;28.92;;;7.95;;
47922;SDS011;33688;44.354;9.228;2023-09-19T08:05:17;28.63;;;7.88;;
47922;SDS011;33688;44.354;9.228;2023-09-19T08:07:45;34.85;;;8.00;;
47922;SDS011;33688;44.354;9.228;2023-09-19T08:10:14;32.38;;;7.00;;
47922;SDS011;33688;44.354;9.228;2023-09-19T08:12:41;30.95;;;7.55;;
47922;SDS011;33688;44.354;9.228;2023-09-19T08:15:16;31.50;;;7.63;;
47922;SDS011;33688;44.354;9.228;2023-09-19T08:17:47;32.92;;;6.88;;
47922;SDS011;33688;44.354;9.228;2023-09-19T08:20:16;31.75;;;7.40;;
47922;SDS011;33688;44.354;9.228;2023-09-19T08:22:52;39.10;;;8.45;;
47922;SDS011;33688;44.354;9.228;2023-09-19T08:25:22;28.90;;;7.65;;
47922;SDS011;33688;44.354;9.228;2023-09-19T08:27:51;28.10;;;7.70;;
47922;SDS011;33688;44.354;9.228;2023-09-19T08:30:21;29.05;;;7.75;;
47922;SDS011;33688;44.354;9.228;2023-09-19T08:33:10;30.92;;;6.95;;
47922;SDS011;33688;44.354;9.228;2023-09-19T08:35:36;34.17;;;7.72;;
47922;SDS011;33688;44.354;9.228;2023-09-19T08:38:03;39.50;;;7.38;;
47922;SDS011;33688;44.354;9.228;2023-09-19T08:40:32;28.35;;;7.07;;
47922;SDS011;33688;44.354;9.228;2023-09-19T08:43:04;25.27;;;7.03;;
47922;SDS011;33688;44.354;9.228;2023-09-19T08:45:31;26.70;;;7.10;;
47922;SDS011;33688;44.354;9.228;2023-09-19T08:51:26;29.67;;;6.80;;
47922;SDS011;33688;44.354;9.228;2023-09-19T08:53:52;26.92;;;7.95;;
47922;SDS011;33688;44.354;9.228;2023-09-19T08:56:35;44.75;;;7.97;;
47922;SDS011;33688;44.354;9.228;2023-09-19T08:59:06;22.52;;;6.90;;
47922;SDS011;33688;44.354;9.228;2023-09-19T09:01:33;33.75;;;7.30;;
47922;SDS011;33688;44.354;9.228;2023-09-19T09:04:02;27.33;;;7.40;;
47922;SDS011;33688;44.354;9.228;2023-09-19T09:09:18;24.23;;;7.25;;
47922;SDS011;33688;44.354;9.228;2023-09-19T09:11:45;26.50;;;6.97;;
47922;SDS011;33688;44.354;9.228;2023-09-19T09:14:13;31.80;;;6.75;;
47922;SDS011;33688;44.354;9.228;2023-09-19T09:16:40;31.13;;;7.85;;
47922;SDS011;33688;44.354;9.228;2023-09-19T09:19:05;25.45;;;7.15;;
47922;SDS011;33688;44.354;9.228;2023-09-19T09:21:32;24.80;;;6.88;;
47922;SDS011;33688;44.354;9.228;2023-09-19T09:26:59;24.92;;;6.95;;
47922;SDS011;33688;44.354;9.228;2023-09-19T09:32:29;26.77;;;6.53;;
47922;SDS011;33688;44.354;9.228;2023-09-19T09:34:59;31.90;;;6.55;;
47922;SDS011;33688;44.354;9.228;2023-09-19T09:37:27;25.92;;;6.57;;
47922;SDS011;33688;44.354;9.228;2023-09-19T09:42:44;29.98;;;6.63;;
47922;SDS011;33688;44.354;9.228;2023-09-19T09:47:42;28.92;;;7.95;;
47922;SDS011;33688;44.354;9.228;2023-09-19T09:50:26;27.13;;;6.43;;
47922;SDS011;33688;44.354;9.228;2023-09-19T09:53:27;30.60;;;7.15;;
47922;SDS011;33688;44.354;9.228;2023-09-19T09:58:34;23.45;;;7.40;;
47922;SDS011;33688;44.354;9.228;2023-09-19T10:01:03;36.67;;;8.77;;
47922;SDS011;33688;44.354;9.228;2023-09-19T10:03:40;27.27;;;6.70;;
47922;SDS011;33688;44.354;9.228;2023-09-19T10:06:14;26.73;;;6.82;;
47922;SDS011;33688;44.354;9.228;2023-09-19T10:09:01;21.95;;;5.88;;
47922;SDS011;33688;44.354;9.228;2023-09-19T10:11:43;35.30;;;7.57;;
47922;SDS011;33688;44.354;9.228;2023-09-19T10:14:24;28.30;;;7.20;;
47922;SDS011;33688;44.354;9.228;2023-09-19T10:16:58;28.80;;;7.57;;
47922;SDS011;33688;44.354;9.228;2023-09-19T10:22:01;32.85;;;6.97;;
47922;SDS011;33688;44.354;9.228;2023-09-19T10:24:28;36.95;;;9.05;;
47922;SDS011;33688;44.354;9.228;2023-09-19T10:26:57;32.75;;;7.55;;
47922;SDS011;33688;44.354;9.228;2023-09-19T10:29:24;21.98;;;6.82;;
47922;SDS011;33688;44.354;9.228;2023-09-19T10:31:59;20.20;;;5.28;;
47922;SDS011;33688;44.354;9.228;2023-09-19T10:34:35;25.92;;;6.65;;
47922;SDS011;33688;44.354;9.228;2023-09-19T10:37:02;25.23;;;6.57;;
47922;SDS011;33688;44.354;9.228;2023-09-19T10:39:31;21.95;;;5.78;;
47922;SDS011;33688;44.354;9.228;2023-09-19T10:42:01;26.35;;;6.47;;
47922;SDS011;33688;44.354;9.228;2023-09-19T10:44:31;23.70;;;6.57;;
47922;SDS011;33688;44.354;9.228;2023-09-19T10:46:59;27.65;;;6.97;;
47922;SDS011;33688;44.354;9.228;2023-09-19T10:49:25;24.88;;;6.25;;
47922;SDS011;33688;44.354;9.228;2023-09-19T10:51:52;36.33;;;8.43;;
47922;SDS011;33688;44.354;9.228;2023-09-19T10:54:24;27.48;;;6.25;;
47922;SDS011;33688;44.354;9.228;2023-09-19T10:56:57;22.17;;;6.05;;
47922;SDS011;33688;44.354;9.228;2023-09-19T10:59:24;22.95;;;5.97;;
47922;SDS011;33688;44.354;9.228;2023-09-19T11:01:53;25.00;;;5.78;;
47922;SDS011;33688;44.354;9.228;2023-09-19T11:07:08;21.27;;;5.65;;
47922;SDS011;33688;44.354;9.228;2023-09-19T11:09:53;30.88;;;7.22;;
47922;SDS011;33688;44.354;9.228;2023-09-19T11:14:55;25.30;;;6.45;;
47922;SDS011;33688;44.354;9.228;2023-09-19T11:25:42;20.90;;;6.50;;
47922;SDS011;33688;44.354;9.228;2023-09-19T11:28:27;26.27;;;6.00;;
47922;SDS011;33688;44.354;9.228;2023-09-19T11:30:56;29.95;;;6.72;;
47922;SDS011;33688;44.354;9.228;2023-09-19T11:36:16;26.77;;;6.65;;
47922;SDS011;33688;44.354;9.228;2023-09-19T11:43:50;25.88;;;5.78;;
47922;SDS011;33688;44.354;9.228;2023-09-19T11:46:53;17.60;;;5.10;;
47922;SDS011;33688;44.354;9.228;2023-09-19T11:49:28;19.35;;;5.13;;
47922;SDS011;33688;44.354;9.228;2023-09-19T11:51:58;22.67;;;4.88;;
47922;SDS011;33688;44.354;9.228;2023-09-19T11:54:27;19.75;;;5.32;;
47922;SDS011;33688;44.354;9.228;2023-09-19T11:56:58;33.03;;;6.53;;
47922;SDS011;33688;44.354;9.228;2023-09-19T11:59:27;18.13;;;5.25;;
47922;SDS011;33688;44.354;9.228;2023-09-19T12:02:06;13.98;;;4.15;;
47922;SDS011;33688;44.354;9.228;2023-09-19T12:04:37;22.60;;;4.65;;
47922;SDS011;33688;44.354;9.228;2023-09-19T12:07:09;16.92;;;5.03;;
47922;SDS011;33688;44.354;9.228;2023-09-19T12:09:45;19.02;;;5.40;;
47922;SDS011;33688;44.354;9.228;2023-09-19T12:12:22;22.65;;;5.03;;
47922;SDS011;33688;44.354;9.228;2023-09-19T12:14:52;19.75;;;4.72;;
47922;SDS011;33688;44.354;9.228;2023-09-19T12:17:20;13.68;;;3.58;;
47922;SDS011;33688;44.354;9.228;2023-09-19T12:19:53;19.02;;;4.70;;
47922;SDS011;33688;44.354;9.228;2023-09-19T12:22:21;13.43;;;4.78;;
47922;SDS011;33688;44.354;9.228;2023-09-19T12:24:47;24.67;;;5.53;;
47922;SDS011;33688;44.354;9.228;2023-09-19T12:27:14;16.95;;;4.28;;
47922;SDS011;33688;44.354;9.228;2023-09-19T12:29:46;21.77;;;6.40;;
47922;SDS011;33688;44.354;9.228;2023-09-19T12:32:33;25.60;;;5.82;;
47922;SDS011;33688;44.354;9.228;2023-09-19T12:35:01;20.67;;;4.88;;
47922;SDS011;33688;44.354;9.228;2023-09-19T12:37:32;15.55;;;3.88;;
47922;SDS011;33688;44.354;9.228;2023-09-19T12:40:05;17.92;;;4.45;;
47922;SDS011;33688;44.354;9.228;2023-09-19T12:42:46;17.00;;;4.28;;
47922;SDS011;33688;44.354;9.228;2023-09-19T12:45:13;17.58;;;4.85;;
47922;SDS011;33688;44.354;9.228;2023-09-19T12:47:40;17.35;;;5.90;;
47922;SDS011;33688;44.354;9.228;2023-09-19T12:51:05;17.48;;;4.32;;
47922;SDS011;33688;44.354;9.228;2023-09-19T12:53:37;20.67;;;5.30;;
47922;SDS011;33688;44.354;9.228;2023-09-19T12:56:17;18.00;;;5.03;;
47922;SDS011;33688;44.354;9.228;2023-09-19T12:58:52;11.75;;;3.70;;
47922;SDS011;33688;44.354;9.228;2023-09-19T13:01:31;15.27;;;4.45;;
47922;SDS011;33688;44.354;9.228;2023-09-19T13:04:10;12.70;;;3.83;;
47922;SDS011;33688;44.354;9.228;2023-09-19T13:06:51;16.05;;;4.82;;
47922;SDS011;33688;44.354;9.228;2023-09-19T13:09:19;14.10;;;3.60;;
47922;SDS011;33688;44.354;9.228;2023-09-19T13:11:47;20.45;;;5.28;;
47922;SDS011;33688;44.354;9.228;2023-09-19T13:14:16;20.15;;;4.88;;
47922;SDS011;33688;44.354;9.228;2023-09-19T13:17:04;13.57;;;3.83;;
47922;SDS011;33688;44.354;9.228;2023-09-19T13:19:45;16.80;;;4.07;;
47922;SDS011;33688;44.354;9.228;2023-09-19T13:28:05;18.90;;;4.60;;
47922;SDS011;33688;44.354;9.228;2023-09-19T13:33:15;17.13;;;4.30;;
47922;SDS011;33688;44.354;9.228;2023-09-19T13:35:47;13.13;;;4.57;;
47922;SDS011;33688;44.354;9.228;2023-09-19T13:38:13;17.70;;;4.32;;
47922;SDS011;33688;44.354;9.228;2023-09-19T13:40:40;11.00;;;3.78;;
47922;SDS011;33688;44.354;9.228;2023-09-19T13:43:10;15.73;;;3.80;;
47922;SDS011;33688;44.354;9.228;2023-09-19T13:45:38;10.55;;;3.42;;
47922;SDS011;33688;44.354;9.228;2023-09-19T13:48:07;11.65;;;3.78;;
47922;SDS011;33688;44.354;9.228;2023-09-19T13:50:34;8.32;;;2.85;;
47922;SDS011;33688;44.354;9.228;2023-09-19T13:53:04;10.30;;;3.17;;
47922;SDS011;33688;44.354;9.228;2023-09-19T13:55:30;7.43;;;3.20;;
47922;SDS011;33688;44.354;9.228;2023-09-19T13:57:56;5.90;;;2.72;;
47922;SDS011;33688;44.354;9.228;2023-09-19T14:00:22;5.53;;;2.92;;
47922;SDS011;33688;44.354;9.228;2023-09-19T14:02:48;8.57;;;2.88;;
47922;SDS011;33688;44.354;9.228;2023-09-19T14:05:14;10.00;;;3.40;;
47922;SDS011;33688;44.354;9.228;2023-09-19T14:07:45;6.82;;;3.17;;
47922;SDS011;33688;44.354;9.228;2023-09-19T14:10:12;9.23;;;2.90;;
47922;SDS011;33688;44.354;9.228;2023-09-19T14:12:38;7.53;;;3.30;;
47922;SDS011;33688;44.354;9.228;2023-09-19T14:17:56;5.55;;;2.80;;
47922;SDS011;33688;44.354;9.228;2023-09-19T14:20:24;8.20;;;2.75;;
47922;SDS011;33688;44.354;9.228;2023-09-19T14:22:52;5.07;;;2.20;;
47922;SDS011;33688;44.354;9.228;2023-09-19T14:25:19;5.78;;;2.70;;
47922;SDS011;33688;44.354;9.228;2023-09-19T14:27:46;4.25;;;2.38;;
47922;SDS011;33688;44.354;9.228;2023-09-19T14:30:13;6.13;;;3.38;;
47922;SDS011;33688;44.354;9.228;2023-09-19T14:32:40;4.45;;;2.05;;
47922;SDS011;33688;44.354;9.228;2023-09-19T14:35:07;7.43;;;2.40;;
47922;SDS011;33688;44.354;9.228;2023-09-19T14:37:35;4.57;;;2.45;;
47922;SDS011;33688;44.354;9.228;2023-09-19T14:40:00;5.35;;;2.70;;
47922;SDS011;33688;44.354;9.228;2023-09-19T14:42:32;6.03;;;3.27;;
47922;SDS011;33688;44.354;9.228;2023-09-19T14:44:57;4.38;;;2.42;;
47922;SDS011;33688;44.354;9.228;2023-09-19T14:47:26;5.85;;;3.17;;
47922;SDS011;33688;44.354;9.228;2023-09-19T14:49:53;7.93;;;2.60;;
47922;SDS011;33688;44.354;9.228;2023-09-19T14:52:19;5.47;;;2.10;;
47922;SDS011;33688;44.354;9.228;2023-09-19T14:54:44;4.53;;;2.15;;
47922;SDS011;33688;44.354;9.228;2023-09-19T14:57:10;3.92;;;2.05;;
47922;SDS011;33688;44.354;9.228;2023-09-19T14:59:36;8.82;;;2.40;;
47922;SDS011;33688;44.354;9.228;2023-09-19T15:02:04;5.72;;;2.58;;
47922;SDS011;33688;44.354;9.228;2023-09-19T15:04:31;4.05;;;2.47;;
47922;SDS011;33688;44.354;9.228;2023-09-19T15:06:59;2.88;;;2.05;;
47922;SDS011;33688;44.354;9.228;2023-09-19T15:09:25;3.63;;;2.08;;
47922;SDS011;33688;44.354;9.228;2023-09-19T15:11:52;6.50;;;2.72;;
47922;SDS011;33688;44.354;9.228;2023-09-19T15:14:19;3.53;;;1.98;;
47922;SDS011;33688;44.354;9.228;2023-09-19T15:16:45;4.05;;;1.95;;
47922;SDS011;33688;44.354;9.228;2023-09-19T15:19:10;5.88;;;2.75;;
47922;SDS011;33688;44.354;9.228;2023-09-19T15:21:37;12.02;;;3.58;;
47922;SDS011;33688;44.354;9.228;2023-09-19T15:24:02;5.95;;;2.40;;
47922;SDS011;33688;44.354;9.228;2023-09-19T15:26:30;5.32;;;2.50;;
47922;SDS011;33688;44.354;9.228;2023-09-19T15:28:56;8.30;;;2.25;;
47922;SDS011;33688;44.354;9.228;2023-09-19T15:31:22;5.80;;;2.20;;
47922;SDS011;33688;44.354;9.228;2023-09-19T15:33:47;3.53;;;2.00;;
47922;SDS011;33688;44.354;9.228;2023-09-19T15:36:14;3.90;;;2.15;;
47922;SDS011;33688;44.354;9.228;2023-09-19T15:41:20;4.32;;;2.28;;
47922;SDS011;33688;44.354;9.228;2023-09-19T15:43:49;4.97;;;2.08;;
47922;SDS011;33688;44.354;9.228;2023-09-19T15:46:14;4.32;;;2.08;;
47922;SDS011;33688;44.354;9.228;2023-09-19T15:48:41;3.50;;;1.77;;
47922;SDS011;33688;44.354;9.228;2023-09-19T15:51:08;5.25;;;2.42;;
47922;SDS011;33688;44.354;9.228;2023-09-19T15:53:44;3.83;;;2.08;;
47922;SDS011;33688;44.354;9.228;2023-09-19T15:56:15;3.45;;;1.92;;
47922;SDS011;33688;44.354;9.228;2023-09-19T15:58:49;2.67;;;1.80;;
47922;SDS011;33688;44.354;9.228;2023-09-19T16:01:17;4.05;;;2.13;;
47922;SDS011;33688;44.354;9.228;2023-09-19T16:03:47;4.18;;;2.33;;
47922;SDS011;33688;44.354;9.228;2023-09-19T16:08:54;3.92;;;2.00;;
47922;SDS011;33688;44.354;9.228;2023-09-19T16:11:25;4.13;;;2.22;;
47922;SDS011;33688;44.354;9.228;2023-09-19T16:13:53;3.80;;;2.28;;
47922;SDS011;33688;44.354;9.228;2023-09-19T16:16:20;4.68;;;1.75;;